createdAt,value
2022-08-20T00:00:51.523Z,14.4
2022-08-20T00:01:51.636Z,14.3
2022-08-20T00:02:51.513Z,15.1
2022-08-20T00:03:53.271Z,14.3
2022-08-20T00:04:51.531Z,14.3
2022-08-20T00:05:51.520Z,15.8
2022-08-20T00:06:51.533Z,15.4
2022-08-20T00:07:51.604Z,14.3
2022-08-20T00:08:51.522Z,15.8
2022-08-20T00:09:51.528Z,14.4
2022-08-20T00:11:51.529Z,14.4
2022-08-20T00:12:51.530Z,14.3
2022-08-20T00:13:51.525Z,14.5
2022-08-20T00:14:51.543Z,14.4
2022-08-20T00:15:51.528Z,15.1
2022-08-20T00:16:51.587Z,14.5
2022-08-20T00:17:51.685Z,14.8
2022-08-20T00:18:51.528Z,14.5
2022-08-20T00:19:51.529Z,14.4
2022-08-20T00:20:51.529Z,14.4
2022-08-20T00:21:51.533Z,15.7
2022-08-20T00:22:51.519Z,14.7
2022-08-20T00:23:51.532Z,15.9
2022-08-20T00:24:51.530Z,15.6
2022-08-20T00:25:51.521Z,15
2022-08-20T00:26:52.551Z,15.7
2022-08-20T00:27:51.545Z,14.9
2022-08-20T00:28:51.525Z,15.6
2022-08-20T00:29:51.520Z,14.8
2022-08-20T00:30:51.535Z,14.7
2022-08-20T00:31:51.520Z,15.2
2022-08-20T00:32:51.533Z,15.8
2022-08-20T00:33:51.542Z,15
2022-08-20T00:34:51.542Z,15.1
2022-08-20T00:35:51.520Z,15.6
2022-08-20T00:36:51.541Z,14.8
2022-08-20T00:37:51.563Z,14.4
2022-08-20T00:38:51.549Z,15.5
2022-08-20T00:39:51.574Z,15.6
2022-08-20T00:40:51.542Z,14.9
2022-08-20T00:41:51.529Z,15.3
2022-08-20T00:42:51.525Z,14.6
2022-08-20T00:43:51.543Z,14.9
2022-08-20T00:44:51.535Z,15.7
2022-08-20T00:45:51.526Z,15.5
2022-08-20T00:46:51.529Z,15.3
2022-08-20T00:47:51.814Z,15
2022-08-20T00:48:51.534Z,15.5
2022-08-20T00:49:51.535Z,14.9
2022-08-20T00:50:51.548Z,14.8
2022-08-20T00:51:51.545Z,14.8
2022-08-20T00:52:51.529Z,15.4
2022-08-20T00:53:51.538Z,14.8
2022-08-20T00:54:51.564Z,15
2022-08-20T00:55:51.523Z,15.1
2022-08-20T00:56:51.539Z,14.7
2022-08-20T00:58:00.898Z,14.8
2022-08-20T00:58:51.546Z,14.6
2022-08-20T00:59:51.537Z,15.5
2022-08-20T01:00:51.535Z,15.1
2022-08-20T01:01:56.258Z,14.8
2022-08-20T01:02:51.557Z,14.6
2022-08-20T01:03:51.613Z,14.6
2022-08-20T01:04:51.541Z,14.5
2022-08-20T01:05:51.545Z,14.8
2022-08-20T01:06:51.546Z,14.6
2022-08-20T01:07:51.694Z,14.7
2022-08-20T01:08:51.564Z,14.6
2022-08-20T01:09:58.979Z,14.7
2022-08-20T01:10:51.543Z,15.1
2022-08-20T01:11:51.552Z,14.5
2022-08-20T01:12:53.240Z,15.2
2022-08-20T01:13:51.688Z,15.6
2022-08-20T01:14:51.576Z,14.6
2022-08-20T01:15:51.559Z,15.2
2022-08-20T01:16:51.534Z,14.8
2022-08-20T01:17:51.644Z,14.7
2022-08-20T01:18:51.622Z,14.9
2022-08-20T01:19:51.542Z,15
2022-08-20T01:20:51.548Z,15.6
2022-08-20T01:21:51.944Z,14.8
2022-08-20T01:22:51.542Z,14.5
2022-08-20T01:23:51.607Z,15.7
2022-08-20T01:24:51.558Z,14.8
2022-08-20T01:25:51.541Z,15.1
2022-08-20T01:26:52.191Z,14.9
2022-08-20T01:27:55.118Z,14.6
2022-08-20T01:28:51.668Z,14.6
2022-08-20T01:29:51.557Z,14.7
2022-08-20T01:30:51.561Z,14.7
2022-08-20T01:31:51.548Z,14.6
2022-08-20T01:32:51.571Z,14.5
2022-08-20T01:33:51.552Z,14.7
2022-08-20T01:34:51.552Z,14.6
2022-08-20T01:35:51.554Z,14.5
2022-08-20T01:36:51.554Z,14.7
2022-08-20T01:37:51.608Z,14.6
2022-08-20T01:38:54.574Z,14.7
2022-08-20T01:39:51.621Z,15.5
2022-08-20T01:40:51.558Z,14.9
2022-08-20T01:41:51.590Z,15.3
2022-08-20T01:42:58.964Z,15.5
2022-08-20T01:43:51.599Z,14.6
2022-08-20T01:44:51.557Z,15.7
2022-08-20T01:45:51.552Z,14.6
2022-08-20T01:46:51.568Z,14.5
2022-08-20T01:47:51.633Z,14.5
2022-08-20T01:48:51.621Z,14.5
2022-08-20T01:49:51.555Z,15.7
2022-08-20T01:50:51.561Z,14.5
2022-08-20T01:51:51.577Z,14.4
2022-08-20T01:52:51.561Z,14.5
2022-08-20T01:53:51.570Z,14.5
2022-08-20T01:54:51.600Z,14.5
2022-08-20T01:56:51.575Z,14.5
2022-08-20T01:57:51.597Z,14.6
2022-08-20T01:58:56.241Z,14.8
2022-08-20T01:59:51.579Z,14.8
2022-08-20T02:00:51.569Z,15.6
2022-08-20T02:01:51.635Z,14.8
2022-08-20T02:02:51.559Z,15.4
2022-08-20T02:03:51.559Z,15.6
2022-08-20T02:04:51.572Z,15.4
2022-08-20T02:05:51.571Z,15
2022-08-20T02:06:56.362Z,14.5
2022-08-20T02:07:51.613Z,14.9
2022-08-20T02:08:51.687Z,15.1
2022-08-20T02:09:51.574Z,14.7
2022-08-20T02:10:51.574Z,14.5
2022-08-20T02:11:51.617Z,14.5
2022-08-20T02:12:51.574Z,14.7
2022-08-20T02:13:51.592Z,14.4
2022-08-20T02:14:51.565Z,14.5
2022-08-20T02:15:51.567Z,15
2022-08-20T02:16:55.508Z,14.5
2022-08-20T02:17:51.608Z,14.9
2022-08-20T02:18:51.608Z,15
2022-08-20T02:19:51.561Z,15.4
2022-08-20T02:20:51.576Z,15.1
2022-08-20T02:21:51.570Z,15.3
2022-08-20T02:22:51.563Z,14.8
2022-08-20T02:23:51.555Z,14.7
2022-08-20T02:24:51.565Z,15.3
2022-08-20T02:25:51.583Z,14.8
2022-08-20T02:26:58.299Z,15.2
2022-08-20T02:27:51.609Z,14.8
2022-08-20T02:28:51.567Z,14.9
2022-08-20T02:29:51.566Z,15.2
2022-08-20T02:30:51.616Z,15.2
2022-08-20T02:32:24.694Z,15
2022-08-20T02:32:51.571Z,15.4
2022-08-20T02:34:14.800Z,15.5
2022-08-20T02:34:51.601Z,15.1
2022-08-20T02:35:51.638Z,15.3
2022-08-20T02:36:51.565Z,15.5
2022-08-20T02:37:51.690Z,15
2022-08-20T02:38:51.632Z,15.4
2022-08-20T02:39:51.592Z,15
2022-08-20T02:40:51.576Z,15.4
2022-08-20T02:41:51.571Z,15
2022-08-20T02:42:51.571Z,15.3
2022-08-20T02:43:51.591Z,15.1
2022-08-20T02:44:51.564Z,15.3
2022-08-20T02:45:51.586Z,14.7
2022-08-20T02:46:51.579Z,14.6
2022-08-20T02:47:51.578Z,15.4
2022-08-20T02:48:51.768Z,15.3
2022-08-20T02:49:51.583Z,14.6
2022-08-20T02:50:51.597Z,15.2
2022-08-20T02:51:51.580Z,14.7
2022-08-20T02:52:52.282Z,14.6
2022-08-20T02:53:51.602Z,15.3
2022-08-20T02:54:51.575Z,14.6
2022-08-20T02:55:51.574Z,14.5
2022-08-20T02:56:51.585Z,14.6
2022-08-20T02:57:51.613Z,15
2022-08-20T02:58:51.595Z,14.5
2022-08-20T02:59:51.575Z,14.5
2022-08-20T03:00:51.575Z,14.5
2022-08-20T03:01:59.282Z,14.4
2022-08-20T03:02:51.582Z,14.9
2022-08-20T03:03:51.575Z,14.5
2022-08-20T03:04:51.595Z,14.6
2022-08-20T03:05:51.581Z,14.9
2022-08-20T03:06:51.593Z,14.4
2022-08-20T03:07:51.684Z,14.4
2022-08-20T03:08:51.571Z,14.5
2022-08-20T03:09:51.651Z,14.4
2022-08-20T03:10:51.585Z,14.4
2022-08-20T03:11:51.636Z,14.4
2022-08-20T03:12:51.610Z,14.3
2022-08-20T03:13:51.760Z,14.4
2022-08-20T03:14:51.583Z,14.6
2022-08-20T03:15:55.250Z,14.7
2022-08-20T03:16:51.651Z,14.7
2022-08-20T03:17:51.649Z,14.4
2022-08-20T03:18:52.094Z,14.3
2022-08-20T03:19:51.589Z,14.5
2022-08-20T03:20:52.230Z,14.3
2022-08-20T03:21:51.580Z,14.3
2022-08-20T03:22:51.594Z,14.3
2022-08-20T03:23:51.826Z,14.3
2022-08-20T03:24:51.588Z,14.3
2022-08-20T03:25:51.581Z,14.3
2022-08-20T03:26:45.676Z,14.4
2022-08-20T03:27:54.041Z,14.8
2022-08-20T03:28:51.695Z,14.7
2022-08-20T03:29:51.587Z,14.7
2022-08-20T03:30:51.613Z,14.8
2022-08-20T03:31:51.587Z,14.7
2022-08-20T03:32:51.591Z,14.8
2022-08-20T03:33:53.595Z,14.3
2022-08-20T03:34:51.593Z,14.3
2022-08-20T03:35:51.592Z,14.2
2022-08-20T03:36:51.585Z,14.5
2022-08-20T03:37:51.646Z,14.3
2022-08-20T03:38:51.585Z,14.3
2022-08-20T03:39:51.624Z,14.3
2022-08-20T03:40:51.596Z,14.3
2022-08-20T03:41:51.607Z,14.3
2022-08-20T03:42:51.610Z,14.2
2022-08-20T03:43:51.599Z,14.3
2022-08-20T03:44:58.868Z,14.3
2022-08-20T03:45:51.608Z,14.4
2022-08-20T03:46:51.594Z,14.3
2022-08-20T03:47:51.651Z,14.4
2022-08-20T03:48:56.376Z,14.3
2022-08-20T03:49:51.598Z,14.3
2022-08-20T03:50:51.589Z,14.3
2022-08-20T03:51:58.198Z,14.3
2022-08-20T03:52:51.593Z,14.2
2022-08-20T03:53:51.585Z,14.2
2022-08-20T03:54:51.598Z,14.2
2022-08-20T03:55:54.112Z,14.3
2022-08-20T03:56:51.596Z,14.2
2022-08-20T03:57:51.625Z,14.3
2022-08-20T03:58:51.589Z,14.2
2022-08-20T03:59:54.633Z,14.3
2022-08-20T04:00:51.595Z,14.2
2022-08-20T04:01:51.653Z,14.2
2022-08-20T04:02:51.628Z,14.1
2022-08-20T04:03:55.108Z,14.2
2022-08-20T04:04:51.595Z,14.4
2022-08-20T04:05:51.607Z,14.7
2022-08-20T04:06:51.604Z,14.3
2022-08-20T04:07:51.602Z,14.4
2022-08-20T04:08:51.617Z,14.1
2022-08-20T04:09:51.599Z,14.1
2022-08-20T04:10:51.606Z,14.1
2022-08-20T04:11:51.615Z,14.2
2022-08-20T04:12:53.202Z,14.2
2022-08-20T04:13:51.594Z,14.1
2022-08-20T04:14:51.601Z,14.2
2022-08-20T04:15:51.607Z,14.2
2022-08-20T04:16:51.606Z,14.1
2022-08-20T04:17:51.666Z,14.2
2022-08-20T04:18:58.640Z,14.1
2022-08-20T04:19:51.600Z,14.1
2022-08-20T04:20:51.605Z,14.1
2022-08-20T04:21:51.609Z,14.2
2022-08-20T04:22:59.194Z,14.1
2022-08-20T04:23:51.734Z,14.1
2022-08-20T04:24:51.603Z,14.2
2022-08-20T04:25:51.603Z,14.2
2022-08-20T04:26:51.601Z,14.1
2022-08-20T04:27:51.612Z,14.1
2022-08-20T04:28:51.751Z,14.2
2022-08-20T04:29:51.639Z,14.2
2022-08-20T04:30:51.785Z,14.1
2022-08-20T04:31:51.617Z,14.1
2022-08-20T04:32:51.615Z,14.1
2022-08-20T04:33:51.601Z,14.2
2022-08-20T04:34:51.607Z,14.1
2022-08-20T04:35:51.612Z,14.1
2022-08-20T04:36:51.606Z,14.1
2022-08-20T04:37:51.627Z,14.2
2022-08-20T04:38:51.622Z,14.2
2022-08-20T04:39:51.665Z,14.1
2022-08-20T04:40:51.605Z,14.1
2022-08-20T04:42:53.953Z,14.1
2022-08-20T04:44:01.920Z,14.2
2022-08-20T04:45:01.904Z,14.2
2022-08-20T04:46:01.904Z,14.1
2022-08-20T04:46:51.605Z,14.1
2022-08-20T04:47:51.710Z,14.2
2022-08-20T04:48:51.613Z,14.2
2022-08-20T04:49:51.628Z,14.2
2022-08-20T04:50:51.616Z,14.2
2022-08-20T04:51:51.619Z,14.1
2022-08-20T04:52:51.608Z,14.1
2022-08-20T04:53:53.268Z,14.1
2022-08-20T04:54:51.644Z,14
2022-08-20T04:55:51.608Z,14.2
2022-08-20T04:56:51.621Z,14.4
2022-08-20T04:57:51.717Z,14.9
2022-08-20T04:58:51.625Z,15
2022-08-20T04:59:51.615Z,15.1
2022-08-20T05:00:51.649Z,14.9
2022-08-20T05:01:51.854Z,14.8
2022-08-20T05:02:51.835Z,14.2
2022-08-20T05:03:51.660Z,14.1
2022-08-20T05:04:51.620Z,14.1
2022-08-20T05:05:51.624Z,14.7
2022-08-20T05:06:51.639Z,15
2022-08-20T05:07:51.636Z,15
2022-08-20T05:08:51.655Z,14.7
2022-08-20T05:09:51.620Z,14.4
2022-08-20T05:10:53.317Z,15
2022-08-20T05:11:51.623Z,15.2
2022-08-20T05:12:56.842Z,15.1
2022-08-20T05:13:51.669Z,15.2
2022-08-20T05:14:51.646Z,15.3
2022-08-20T05:15:51.624Z,15.2
2022-08-20T05:17:51.679Z,15.1
2022-08-20T05:18:52.313Z,15
2022-08-20T05:20:01.901Z,14.5
2022-08-20T05:21:02.022Z,15.1
2022-08-20T05:22:01.943Z,15.2
2022-08-20T05:22:51.714Z,14.5
2022-08-20T05:23:51.702Z,14.6
2022-08-20T05:24:51.630Z,14.3
2022-08-20T05:25:51.630Z,15.3
2022-08-20T05:26:51.624Z,15.3
2022-08-20T05:27:51.651Z,15.3
2022-08-20T05:28:57.810Z,15.4
2022-08-20T05:29:51.642Z,15.5
2022-08-20T05:30:51.626Z,15.4
2022-08-20T05:31:51.639Z,15.2
2022-08-20T05:32:51.657Z,14.4
2022-08-20T05:33:51.628Z,14.4
2022-08-20T05:34:51.660Z,14.9
2022-08-20T05:35:51.635Z,14.5
2022-08-20T05:36:51.641Z,15.5
2022-08-20T05:37:51.663Z,15.5
2022-08-20T05:38:51.826Z,15
2022-08-20T05:39:51.683Z,14.4
2022-08-20T05:40:51.636Z,14.4
2022-08-20T05:41:51.637Z,15.4
2022-08-20T05:42:51.995Z,15.4
2022-08-20T05:43:51.698Z,14.7
2022-08-20T05:44:51.622Z,14.7
2022-08-20T05:45:56.403Z,15.4
2022-08-20T05:46:51.625Z,15.4
2022-08-20T05:47:56.385Z,15.4
2022-08-20T05:48:51.639Z,15.4
2022-08-20T05:49:51.632Z,15.3
2022-08-20T05:50:51.635Z,15.4
2022-08-20T05:51:51.651Z,15.4
2022-08-20T05:52:51.651Z,15.4
2022-08-20T05:53:51.691Z,15.4
2022-08-20T05:54:51.639Z,15.4
2022-08-20T05:55:51.655Z,15.3
2022-08-20T05:56:51.640Z,15.4
2022-08-20T05:57:51.653Z,15.4
2022-08-20T05:58:51.829Z,15.4
2022-08-20T05:59:51.641Z,15.3
2022-08-20T06:00:51.687Z,15.4
2022-08-20T06:01:51.642Z,15.3
2022-08-20T06:02:51.668Z,15.5
2022-08-20T06:03:51.640Z,15.4
2022-08-20T06:04:56.236Z,15.2
2022-08-20T06:05:51.645Z,15.1
2022-08-20T06:06:51.634Z,15.4
2022-08-20T06:07:51.660Z,15.4
2022-08-20T06:08:51.655Z,15.4
2022-08-20T06:09:51.637Z,15.5
2022-08-20T06:10:51.646Z,15.1
2022-08-20T06:11:51.632Z,15.4
2022-08-20T06:12:51.667Z,15.3
2022-08-20T06:13:51.677Z,14.7
2022-08-20T06:14:51.642Z,15.3
2022-08-20T06:15:51.640Z,15.2
2022-08-20T06:16:57.329Z,15.3
2022-08-20T06:17:58.329Z,15.3
2022-08-20T06:18:51.712Z,14.6
2022-08-20T06:19:51.639Z,14.4
2022-08-20T06:20:51.668Z,15.4
2022-08-20T06:21:51.657Z,14.7
2022-08-20T06:22:51.674Z,14.9
2022-08-20T06:23:56.963Z,14.6
2022-08-20T06:24:51.642Z,14.8
2022-08-20T06:25:51.636Z,14.6
2022-08-20T06:26:51.660Z,14.6
2022-08-20T06:27:51.660Z,14.5
2022-08-20T06:28:54.179Z,14.5
2022-08-20T06:29:51.663Z,14.5
2022-08-20T06:30:51.642Z,14.5
2022-08-20T06:31:51.644Z,14.6
2022-08-20T06:32:51.661Z,14.5
2022-08-20T06:33:51.732Z,14.5
2022-08-20T06:34:51.645Z,14.5
2022-08-20T06:35:51.640Z,14.4
2022-08-20T06:36:51.647Z,14.5
2022-08-20T06:37:51.671Z,14.5
2022-08-20T06:38:51.746Z,14.6
2022-08-20T06:39:51.717Z,14.5
2022-08-20T06:40:51.645Z,14.6
2022-08-20T06:41:51.719Z,14.6
2022-08-20T06:42:51.665Z,14.6
2022-08-20T06:43:51.655Z,14.5
2022-08-20T06:44:51.714Z,14.6
2022-08-20T06:45:51.667Z,14.6
2022-08-20T06:46:51.654Z,14.6
2022-08-20T06:47:51.827Z,14.5
2022-08-20T06:48:51.741Z,14.6
2022-08-20T06:49:51.651Z,14.6
2022-08-20T06:50:51.652Z,15.2
2022-08-20T06:51:52.038Z,14.6
2022-08-20T06:52:53.240Z,14.7
2022-08-20T06:53:51.786Z,14.6
2022-08-20T06:54:51.662Z,14.6
2022-08-20T06:55:51.658Z,14.7
2022-08-20T06:56:51.660Z,14.8
2022-08-20T06:57:51.685Z,14.6
2022-08-20T06:58:51.662Z,14.8
2022-08-20T06:59:54.086Z,14.7
2022-08-20T07:00:51.684Z,14.7
2022-08-20T07:01:51.659Z,14.7
2022-08-20T07:02:51.676Z,15
2022-08-20T07:03:55.594Z,14.8
2022-08-20T07:04:51.652Z,14.8
2022-08-20T07:05:51.857Z,14.6
2022-08-20T07:06:51.660Z,14.8
2022-08-20T07:07:51.687Z,14.6
2022-08-20T07:08:51.695Z,14.8
2022-08-20T07:09:51.672Z,14.6
2022-08-20T07:10:51.660Z,14.6
2022-08-20T07:11:51.668Z,14.6
2022-08-20T07:12:51.677Z,15.2
2022-08-20T07:13:51.882Z,14.9
2022-08-20T07:14:51.658Z,14.6
2022-08-20T07:15:53.997Z,15.3
2022-08-20T07:16:51.695Z,14.6
2022-08-20T07:17:51.734Z,14.6
2022-08-20T07:18:51.674Z,14.5
2022-08-20T07:19:51.662Z,14.7
2022-08-20T07:20:51.652Z,14.7
2022-08-20T07:21:51.662Z,14.7
2022-08-20T07:22:51.725Z,14.6
2022-08-20T07:23:51.656Z,14.6
2022-08-20T07:24:51.651Z,14.7
2022-08-20T07:25:51.657Z,14.6
2022-08-20T07:26:51.813Z,14.9
2022-08-20T07:27:51.753Z,14.6
2022-08-20T07:28:51.706Z,14.7
2022-08-20T07:29:51.659Z,14.6
2022-08-20T07:30:55.928Z,14.6
2022-08-20T07:31:51.661Z,14.6
2022-08-20T07:32:51.675Z,14.7
2022-08-20T07:33:51.654Z,14.7
2022-08-20T07:34:51.663Z,15.1
2022-08-20T07:35:51.683Z,14.6
2022-08-20T07:36:51.666Z,14.7
2022-08-20T07:37:51.674Z,14.5
2022-08-20T07:38:51.663Z,14.6
2022-08-20T07:39:51.746Z,14.7
2022-08-20T07:40:51.672Z,14.6
2022-08-20T07:41:56.499Z,14.5
2022-08-20T07:42:51.702Z,14.7
2022-08-20T07:43:51.710Z,14.6
2022-08-20T07:44:51.670Z,14.6
2022-08-20T07:45:52.193Z,14.6
2022-08-20T07:46:51.681Z,14.6
2022-08-20T07:47:51.689Z,14.6
2022-08-20T07:48:51.834Z,14.6
2022-08-20T07:49:51.696Z,14.6
2022-08-20T07:50:51.792Z,14.6
2022-08-20T07:51:51.808Z,14.6
2022-08-20T07:52:51.913Z,14.6
2022-08-20T07:53:52.099Z,14.6
2022-08-20T07:55:58.770Z,14.7
2022-08-20T07:56:51.679Z,14.7
2022-08-20T07:57:51.684Z,15
2022-08-20T07:58:51.668Z,14.6
2022-08-20T07:59:51.679Z,14.6
2022-08-20T08:00:51.742Z,14.7
2022-08-20T08:01:51.675Z,14.6
2022-08-20T08:02:51.674Z,14.7
2022-08-20T08:03:51.675Z,14.8
2022-08-20T08:04:51.673Z,14.6
2022-08-20T08:05:51.670Z,14.7
2022-08-20T08:06:51.678Z,14.6
2022-08-20T08:07:51.690Z,14.7
2022-08-20T08:08:51.681Z,14.8
2022-08-20T08:09:51.679Z,14.7
2022-08-20T08:10:51.677Z,14.6
2022-08-20T08:11:51.676Z,14.7
2022-08-20T08:12:51.751Z,14.7
2022-08-20T08:13:51.675Z,14.7
2022-08-20T08:14:51.684Z,14.7
2022-08-20T08:15:51.686Z,14.8
2022-08-20T08:16:51.672Z,14.8
2022-08-20T08:17:51.729Z,14.8
2022-08-20T08:18:51.721Z,14.8
2022-08-20T08:19:51.689Z,14.7
2022-08-20T08:20:51.701Z,15
2022-08-20T08:21:51.685Z,14.9
2022-08-20T08:22:51.744Z,14.8
2022-08-20T08:23:51.725Z,14.9
2022-08-20T08:24:57.088Z,14.8
2022-08-20T08:25:51.672Z,14.9
2022-08-20T08:26:51.699Z,15
2022-08-20T08:27:51.785Z,15
2022-08-20T08:28:51.696Z,14.9
2022-08-20T08:29:51.691Z,14.9
2022-08-20T08:30:51.688Z,15
2022-08-20T08:31:51.694Z,15
2022-08-20T08:32:51.695Z,14.9
2022-08-20T08:33:51.686Z,15.1
2022-08-20T08:34:51.690Z,14.9
2022-08-20T08:35:51.705Z,15.1
2022-08-20T08:36:51.695Z,14.8
2022-08-20T08:37:51.710Z,14.9
2022-08-20T08:38:51.714Z,14.9
2022-08-20T08:39:51.780Z,15
2022-08-20T08:40:51.718Z,14.9
2022-08-20T08:41:51.696Z,14.9
2022-08-20T08:42:51.715Z,14.9
2022-08-20T08:43:51.694Z,14.9
2022-08-20T08:44:51.751Z,14.9
2022-08-20T08:45:51.683Z,14.9
2022-08-20T08:46:51.696Z,14.8
2022-08-20T08:47:51.726Z,14.8
2022-08-20T08:48:51.715Z,14.6
2022-08-20T08:49:51.695Z,14.7
2022-08-20T08:50:53.989Z,14.8
2022-08-20T08:51:51.711Z,14.7
2022-08-20T08:52:51.711Z,14.8
2022-08-20T08:53:51.712Z,14.8
2022-08-20T08:54:51.717Z,14.6
2022-08-20T08:55:51.701Z,14.8
2022-08-20T08:56:51.711Z,14.7
2022-08-20T08:57:51.734Z,14.6
2022-08-20T08:58:51.699Z,14.6
2022-08-20T09:00:04.391Z,14.6
2022-08-20T09:00:56.652Z,14.7
2022-08-20T09:01:54.280Z,14.7
2022-08-20T09:02:51.817Z,14.6
2022-08-20T09:03:51.710Z,14.7
2022-08-20T09:04:51.704Z,14.7
2022-08-20T09:05:51.693Z,14.6
2022-08-20T09:06:52.462Z,14.3
2022-08-20T09:07:51.863Z,14.6
2022-08-20T09:08:51.766Z,14.5
2022-08-20T09:09:51.896Z,14.3
2022-08-20T09:10:51.716Z,14.5
2022-08-20T09:11:51.699Z,14.5
2022-08-20T09:12:52.154Z,14.6
2022-08-20T09:13:51.707Z,14.4
2022-08-20T09:14:51.700Z,14.5
2022-08-20T09:15:51.699Z,14.4
2022-08-20T09:16:53.240Z,14.2
2022-08-20T09:17:51.855Z,14.1
2022-08-20T09:18:51.714Z,13.9
2022-08-20T09:19:51.723Z,14.1
2022-08-20T09:20:51.703Z,14
2022-08-20T09:21:51.719Z,14.3
2022-08-20T09:22:51.944Z,14.4
2022-08-20T09:23:51.710Z,14.5
2022-08-20T09:24:51.709Z,14.6
2022-08-20T09:25:51.729Z,14.6
2022-08-20T09:26:51.712Z,14.6
2022-08-20T09:27:51.757Z,14.7
2022-08-20T09:28:52.251Z,14.7
2022-08-20T09:29:51.712Z,14.6
2022-08-20T09:30:51.703Z,14.7
2022-08-20T09:31:51.709Z,14.8
2022-08-20T09:32:51.719Z,14.7
2022-08-20T09:33:51.716Z,14.7
2022-08-20T09:34:51.714Z,14.3
2022-08-20T09:35:51.724Z,14.7
2022-08-20T09:36:51.724Z,14.3
2022-08-20T09:37:51.785Z,14.4
2022-08-20T09:38:51.735Z,14.3
2022-08-20T09:39:51.788Z,14
2022-08-20T09:40:51.702Z,14
2022-08-20T09:41:51.724Z,13.9
2022-08-20T09:42:51.834Z,14.1
2022-08-20T09:43:51.719Z,14.4
2022-08-20T09:44:51.713Z,14.4
2022-08-20T09:45:51.707Z,14.2
2022-08-20T09:46:51.720Z,14.4
2022-08-20T09:47:55.052Z,14.2
2022-08-20T09:48:51.725Z,14.1
2022-08-20T09:49:51.731Z,13.9
2022-08-20T09:50:51.708Z,14.1
2022-08-20T09:51:51.744Z,14.2
2022-08-20T09:52:51.737Z,13.9
2022-08-20T09:53:51.734Z,13.9
2022-08-20T09:54:51.714Z,14
2022-08-20T09:55:51.725Z,13.9
2022-08-20T09:56:51.733Z,14.2
2022-08-20T09:57:51.710Z,14.3
2022-08-20T09:58:51.722Z,14
2022-08-20T09:59:51.741Z,14
2022-08-20T10:00:51.731Z,14.5
2022-08-20T10:01:51.786Z,14
2022-08-20T10:02:51.734Z,14.4
2022-08-20T10:03:51.712Z,14.5
2022-08-20T10:04:51.732Z,14.7
2022-08-20T10:05:51.737Z,14.3
2022-08-20T10:06:51.741Z,14
2022-08-20T10:07:51.734Z,13.7
2022-08-20T10:08:51.723Z,13.5
2022-08-20T10:09:51.742Z,13.7
2022-08-20T10:10:51.730Z,14.3
2022-08-20T10:11:51.730Z,14.5
2022-08-20T10:12:54.938Z,13.8
2022-08-20T10:13:51.734Z,14.5
2022-08-20T10:14:51.718Z,13.7
2022-08-20T10:15:51.714Z,13.7
2022-08-20T10:16:51.728Z,14.2
2022-08-20T10:17:51.737Z,14
2022-08-20T10:18:51.733Z,14.1
2022-08-20T10:19:51.734Z,13.9
2022-08-20T10:20:51.739Z,13.7
2022-08-20T10:21:51.730Z,13.8
2022-08-20T10:22:51.724Z,13.9
2022-08-20T10:23:51.778Z,13.5
2022-08-20T10:24:51.720Z,13.3
2022-08-20T10:25:51.738Z,14.2
2022-08-20T10:26:51.726Z,14.3
2022-08-20T10:27:51.736Z,14.3
2022-08-20T10:28:51.753Z,14.2
2022-08-20T10:29:51.755Z,14
2022-08-20T10:30:51.732Z,13.8
2022-08-20T10:31:51.717Z,14.2
2022-08-20T10:32:51.741Z,14.2
2022-08-20T10:33:51.734Z,14.3
2022-08-20T10:35:51.721Z,13.8
2022-08-20T10:36:51.722Z,13.7
2022-08-20T10:37:51.867Z,14.3
2022-08-20T10:38:51.756Z,14.4
2022-08-20T10:39:51.751Z,14.3
2022-08-20T10:40:52.566Z,14.2
2022-08-20T10:41:51.727Z,14.2
2022-08-20T10:42:51.746Z,14
2022-08-20T10:43:51.725Z,14
2022-08-20T10:44:51.732Z,14.3
2022-08-20T10:45:51.758Z,14.1
2022-08-20T10:46:51.722Z,14.2
2022-08-20T10:47:58.468Z,13.9
2022-08-20T10:48:51.735Z,13.7
2022-08-20T10:49:51.727Z,13.6
2022-08-20T10:50:51.730Z,13.8
2022-08-20T10:51:51.722Z,13.7
2022-08-20T10:52:51.742Z,14.1
2022-08-20T10:53:51.757Z,14.1
2022-08-20T10:54:51.730Z,14
2022-08-20T10:55:51.726Z,14.2
2022-08-20T10:56:51.732Z,14.3
2022-08-20T10:57:51.832Z,14.4
2022-08-20T10:58:51.724Z,14.2
2022-08-20T10:59:51.733Z,14.6
2022-08-20T11:00:51.735Z,14.3
2022-08-20T11:01:51.757Z,14.4
2022-08-20T11:02:51.731Z,13.9
2022-08-20T11:03:51.759Z,13.7
2022-08-20T11:04:51.743Z,13.6
2022-08-20T11:05:51.739Z,14
2022-08-20T11:06:51.737Z,14.1
2022-08-20T11:07:56.494Z,14.2
2022-08-20T11:08:51.749Z,14
2022-08-20T11:09:51.763Z,13.9
2022-08-20T11:10:51.742Z,14.4
2022-08-20T11:11:51.745Z,14.5
2022-08-20T11:12:51.740Z,14.5
2022-08-20T11:13:51.742Z,14.6
2022-08-20T11:14:51.743Z,14.7
2022-08-20T11:15:51.743Z,13.8
2022-08-20T11:16:51.734Z,13.8
2022-08-20T11:18:51.737Z,13.8
2022-08-20T11:19:51.740Z,14
2022-08-20T11:20:51.747Z,14.3
2022-08-20T11:21:51.765Z,14.4
2022-08-20T11:22:51.739Z,13.8
2022-08-20T11:23:51.765Z,13.7
2022-08-20T11:24:51.744Z,13.1
2022-08-20T11:25:51.741Z,13.1
2022-08-20T11:26:51.755Z,13.2
2022-08-20T11:27:51.748Z,13
2022-08-20T11:28:51.746Z,13.1
2022-08-20T11:29:51.733Z,12.8
2022-08-20T11:30:51.742Z,13
2022-08-20T11:31:51.733Z,13.5
2022-08-20T11:32:51.745Z,13.1
2022-08-20T11:33:51.766Z,13
2022-08-20T11:34:51.737Z,13.1
2022-08-20T11:35:51.741Z,13.6
2022-08-20T11:36:51.754Z,13.9
2022-08-20T11:37:51.774Z,13.9
2022-08-20T11:38:51.785Z,14
2022-08-20T11:39:51.802Z,14.1
2022-08-20T11:40:51.735Z,14.2
2022-08-20T11:41:55.247Z,14.2
2022-08-20T11:43:13.828Z,14
2022-08-20T11:44:17.550Z,14.2
2022-08-20T11:44:51.753Z,13.7
2022-08-20T11:45:51.751Z,12.5
2022-08-20T11:46:51.750Z,12.4
2022-08-20T11:47:45.678Z,12.5
2022-08-20T11:48:51.750Z,13.7
2022-08-20T11:49:51.774Z,13.6
2022-08-20T11:50:51.782Z,13.9
2022-08-20T11:51:51.770Z,13.9
2022-08-20T11:52:51.776Z,14
2022-08-20T11:53:51.745Z,13.5
2022-08-20T11:54:54.760Z,14
2022-08-20T11:55:51.749Z,13.8
2022-08-20T11:56:51.755Z,13.4
2022-08-20T11:57:51.766Z,13
2022-08-20T11:58:51.746Z,13.7
2022-08-20T11:59:51.755Z,13.3
2022-08-20T12:00:51.754Z,13.7
2022-08-20T12:02:02.326Z,13
2022-08-20T12:02:51.942Z,13.9
2022-08-20T12:03:51.748Z,13.7
2022-08-20T12:04:51.769Z,13
2022-08-20T12:05:51.769Z,13
2022-08-20T12:06:51.751Z,13
2022-08-20T12:07:51.749Z,13.2
2022-08-20T12:08:51.764Z,13
2022-08-20T12:09:51.759Z,13.8
2022-08-20T12:10:51.756Z,13
2022-08-20T12:11:51.759Z,14
2022-08-20T12:12:51.762Z,13.1
2022-08-20T12:13:51.763Z,13.8
2022-08-20T12:14:51.758Z,14.2
2022-08-20T12:15:51.759Z,14.1
2022-08-20T12:16:51.752Z,14.2
2022-08-20T12:17:51.750Z,14.2
2022-08-20T12:18:51.760Z,13.6
2022-08-20T12:19:51.788Z,13.8
2022-08-20T12:20:51.791Z,13
2022-08-20T12:21:51.775Z,12.7
2022-08-20T12:22:51.780Z,12.8
2022-08-20T12:23:51.826Z,12.5
2022-08-20T12:24:51.759Z,12.5
2022-08-20T12:25:51.761Z,12.7
2022-08-20T12:26:51.757Z,12.3
2022-08-20T12:27:51.767Z,12.5
2022-08-20T12:28:51.774Z,13.2
2022-08-20T12:29:51.765Z,12.6
2022-08-20T12:30:51.772Z,12.7
2022-08-20T12:31:51.771Z,13.5
2022-08-20T12:32:51.771Z,12.8
2022-08-20T12:33:51.775Z,13.1
2022-08-20T12:34:51.788Z,13.4
2022-08-20T12:35:51.757Z,13.8
2022-08-20T12:36:51.977Z,14.1
2022-08-20T12:37:51.766Z,13.8
2022-08-20T12:38:51.780Z,14.1
2022-08-20T12:39:51.859Z,14
2022-08-20T12:40:51.769Z,13.7
2022-08-20T12:41:51.828Z,13.4
2022-08-20T12:42:51.759Z,13.2
2022-08-20T12:43:51.773Z,13.1
2022-08-20T12:44:51.771Z,13.1
2022-08-20T12:45:51.771Z,12.9
2022-08-20T12:46:51.777Z,12.8
2022-08-20T12:47:51.761Z,12.8
2022-08-20T12:48:51.784Z,12.5
2022-08-20T12:49:51.800Z,12.5
2022-08-20T12:50:51.958Z,12.6
2022-08-20T12:51:51.759Z,12.9
2022-08-20T12:52:51.783Z,12.9
2022-08-20T12:53:51.818Z,13.1
2022-08-20T12:54:51.782Z,13.2
2022-08-20T12:55:51.784Z,13.3
2022-08-20T12:56:51.777Z,13.2
2022-08-20T12:57:51.771Z,12.9
2022-08-20T12:58:51.791Z,13
2022-08-20T12:59:51.774Z,13.5
2022-08-20T13:00:51.775Z,13
2022-08-20T13:01:51.806Z,13.2
2022-08-20T13:02:51.773Z,13.1
2022-08-20T13:03:51.792Z,13.1
2022-08-20T13:04:51.793Z,12.9
2022-08-20T13:05:51.825Z,12.7
2022-08-20T13:06:51.771Z,12.6
2022-08-20T13:07:51.770Z,12.6
2022-08-20T13:08:51.782Z,13.4
2022-08-20T13:09:51.780Z,13
2022-08-20T13:10:51.861Z,12.3
2022-08-20T13:11:51.776Z,12.3
2022-08-20T13:12:51.780Z,13.1
2022-08-20T13:13:52.228Z,12.7
2022-08-20T13:14:51.769Z,12.5
2022-08-20T13:15:51.772Z,13
2022-08-20T13:16:51.772Z,12.6
2022-08-20T13:17:51.777Z,12.4
2022-08-20T13:18:51.795Z,12.4
2022-08-20T13:19:51.795Z,12.3
2022-08-20T13:20:51.777Z,12.5
2022-08-20T13:21:54.942Z,12.4
2022-08-20T13:22:51.776Z,11.9
2022-08-20T13:23:51.789Z,11.8
2022-08-20T13:24:51.805Z,11.5
2022-08-20T13:25:51.776Z,12.9
2022-08-20T13:26:51.776Z,12.4
2022-08-20T13:27:51.796Z,13.3
2022-08-20T13:28:51.813Z,13
2022-08-20T13:29:56.368Z,13.1